Utica, NY

8:22 AM EDT on May 22, 2015 (GMT -0400)
Oswego County | | Change Station
CLOSE
Current Station
Airport
Location: Fulton,
Elevation: 472 ft
Nearby Weather Stations
Active Advisory: Freeze Warning

Elev 472 ft 43.35 °N, 76.38 °W | Updated 28 minutes ago

Partly Cloudy
Partly Cloudy
52 °F
Feels Like 52 °F
N
5
Wind Variable Wind from North

Today
High -- | Low -- °F
--% Chance of Precip.
Yesterday
High -- | Low -- °F
Precip. -- in
5:31 AM 8:24 PM
Waxing Crescent, 21% visible
Pressure 29.94 in
Visibility 10.0 miles
Clouds Clear
Dew Point 41 °F
Humidity 66%
Rainfall 0.00 in
Snow Depth Not available.
UV 2 out of 12
Pollen 7.90 out of 12
Air Quality Not available.
Flu Activity Widespread
METAR KFZY 221154Z AUTO 35004KT 10SM CLR 11/05 A2993 RMK AO2 SLP137 T01110050 10111 20083 51027

More Conditions Fewer Conditions

Pressure 29.94 in
Visibility 10.0 miles
Clouds Clear
Dew Point 41 °F
Humidity 66%
Rainfall 0.00 in
Snow Depth Not available.
UV 2 out of 12
Pollen 7.90 out of 12
Air Quality Not available.
Flu Activity Widespread
METAR KFZY 221154Z AUTO 35004KT 10SM CLR 11/05 A2993 RMK AO2 SLP137 T01110050 10111 20083 51027

More Conditions Fewer Conditions

10-Day Weather Forecast

Almanac

Astronomy

May. 22, 2015 Rise Set
Actual Time
Civil Twilight
Nautical Twilight
Astronomical Twilight
Moon
Length of Visible Light
Length of Day
Tomorrow will be .
, % of the Moon is Illuminated

Today's Extremes

State Highs State Lows

Community

WunderPhotos

Upload Photos

1,823,208 photos uploaded!

WunderBlogs® & News

Nearby

Air Quality

  Air Quality AQ Index Pollutant
Not available.

Snow Depth

Station Depth Elevation

Earthquake Activity

City Distance Mag. Time & Date
Minimum magnitude displayed is 2.5.

Coastal Water Temperatures

Place Temperature

Stations

Nearby Weather Stations

Station Location Temp. Windchill Dew Point Humidity Wind Precip. Elev Updated Type
                   
Freeze Warning
Statement as of 3:32 AM EDT on May 22, 2015

... Freeze warning in effect from midnight tonight to 9 am EDT
Saturday...

The National Weather Service in Binghamton has issued a freeze
warning... which is in effect from midnight tonight to 9 am EDT
Saturday. The freeze watch is no longer in effect.

* Locations... twin tier region... eastern Finger Lakes region...
western Mohawk Valley... western Catskills... and the Pocono
Mountain region.

* Temperatures... lows in the low 30s.

* Timing... late Friday night into early Saturday morning.

* Impacts... vegetation that may be impacted by freezing
conditions should be protected.

Precautionary/preparedness actions...

A freeze warning means sub-freezing temperatures are imminent or
highly likely. These conditions will kill crops and other
sensitive vegetation.